Time;durP1;ratioP1;P1;durP2;ratioP2;P2;SDS_P1;SDS_P2;PMS_P1;PMS_P2;Temp;Humidity;BMP_temperature;BMP_pressure;BME280_temperature;BME280_humidity;BME280_pressure;Samples;Min_cycle;Max_cycle;Signal;HPM_P1;HPM_P2
2022/08/22 00:00:28;;;;;;;14.23;8.38;;;25.80;99.90;;;;;;1868264;75;21080;-84
2022/08/22 00:03:01;;;;;;;12.88;9.05;;;25.70;99.90;;;;;;1801193;78;21165;-84
2022/08/22 00:05:35;;;;;;;14.00;9.23;;;25.70;99.90;;;;;;1856086;75;21601;-84
2022/08/22 00:08:09;;;;;;;13.08;8.95;;;25.80;99.90;;;;;;1863959;75;21225;-85
2022/08/22 00:10:42;;;;;;;13.78;8.68;;;25.80;99.90;;;;;;1849752;75;21172;-84
2022/08/22 00:13:15;;;;;;;16.17;11.00;;;25.80;99.90;;;;;;1847941;76;21456;-85
2022/08/22 00:15:49;;;;;;;15.98;10.00;;;25.80;99.90;;;;;;1849020;75;21147;-84
2022/08/22 00:18:22;;;;;;;13.68;9.33;;;25.80;99.90;;;;;;1850313;75;21592;-83
2022/08/22 00:20:55;;;;;;;16.23;9.20;;;25.80;99.90;;;;;;1849090;75;21160;-84
2022/08/22 00:23:28;;;;;;;13.22;9.00;;;25.80;99.90;;;;;;1811286;77;21088;-83
2022/08/22 00:26:01;;;;;;;17.23;9.33;;;25.90;99.90;;;;;;1862123;75;21991;-84
2022/08/22 00:28:33;;;;;;;18.73;9.43;;;25.90;99.90;;;;;;1841049;75;21150;-84
2022/08/22 00:31:06;;;;;;;13.38;9.28;;;25.90;99.90;;;;;;1857440;75;21258;-84
2022/08/22 00:33:40;;;;;;;14.28;8.33;;;25.90;99.90;;;;;;1846313;76;21155;-84
2022/08/22 00:36:13;;;;;;;13.58;8.48;;;25.90;99.90;;;;;;1848570;76;21233;-85
2022/08/22 00:38:46;;;;;;;14.07;9.08;;;25.90;99.90;;;;;;1861279;76;21079;-84
2022/08/22 00:41:20;;;;;;;14.20;8.28;;;26.00;99.90;;;;;;1850033;75;21071;-84
2022/08/22 00:43:53;;;;;;;15.90;8.78;;;26.00;99.90;;;;;;1853505;75;21077;-85
2022/08/22 00:46:26;;;;;;;15.40;8.18;;;26.00;99.90;;;;;;1858912;76;21096;-71
2022/08/22 00:49:00;;;;;;;10.98;7.53;;;26.10;99.90;;;;;;1847565;77;21623;-71
2022/08/22 00:51:31;;;;;;;15.93;9.20;;;26.10;99.90;;;;;;1862178;75;21541;-71
2022/08/22 00:54:03;;;;;;;14.55;10.30;;;26.10;99.90;;;;;;1840091;75;21085;-71
2022/08/22 00:56:36;;;;;;;15.00;10.40;;;26.10;99.90;;;;;;1850515;75;21130;-72
2022/08/22 00:59:07;;;;;;;16.27;11.15;;;26.20;99.90;;;;;;1861734;74;21104;-71
2022/08/22 01:01:42;;;;;;;16.77;12.00;;;26.20;99.90;;;;;;1855255;75;21516;-71
2022/08/22 01:04:14;;;;;;;16.40;10.23;;;26.20;99.90;;;;;;1859737;77;21195;-72
2022/08/22 01:06:48;;;;;;;15.65;10.98;;;26.30;99.90;;;;;;1858550;75;21144;-71
2022/08/22 01:09:21;;;;;;;16.93;11.33;;;26.30;99.90;;;;;;1857577;76;21261;-72
2022/08/22 01:11:51;;;;;;;16.15;10.50;;;26.30;99.90;;;;;;1847850;75;21159;-73
2022/08/22 01:14:24;;;;;;;17.15;10.48;;;26.30;99.90;;;;;;1870259;75;21160;-73
2022/08/22 01:16:59;;;;;;;15.13;10.00;;;26.40;99.90;;;;;;1878561;75;21049;-73
2022/08/22 01:19:30;;;;;;;16.07;11.12;;;26.50;99.90;;;;;;1857137;76;21097;-72
2022/08/22 01:22:03;;;;;;;12.60;9.28;;;26.50;99.90;;;;;;1845488;75;21563;-73
2022/08/22 01:24:35;;;;;;;15.53;9.83;;;26.60;99.90;;;;;;1854482;76;22162;-73
2022/08/22 01:27:09;;;;;;;14.03;9.63;;;26.60;99.90;;;;;;1874608;75;21189;-73
2022/08/22 01:29:40;;;;;;;13.72;9.05;;;26.70;99.90;;;;;;1839850;77;21144;-73
2022/08/22 01:32:14;;;;;;;14.00;8.55;;;26.80;99.90;;;;;;1840223;75;21103;-73
2022/08/22 01:34:47;;;;;;;14.87;8.30;;;26.80;99.90;;;;;;1840061;75;21167;-73
2022/08/22 01:37:19;;;;;;;11.78;7.75;;;26.90;99.90;;;;;;1845344;75;21146;-73
2022/08/22 01:39:52;;;;;;;13.85;9.13;;;27.00;99.90;;;;;;1817772;77;21117;-73
2022/08/22 01:42:25;;;;;;;14.18;7.83;;;27.00;99.90;;;;;;1858218;76;21097;-73
2022/08/22 01:44:59;;;;;;;10.58;7.33;;;27.00;99.90;;;;;;1856761;75;21159;-73
2022/08/22 01:47:32;;;;;;;10.13;7.90;;;27.10;99.90;;;;;;1858140;75;21119;-73
2022/08/22 01:50:06;;;;;;;12.70;7.97;;;27.10;99.90;;;;;;1853049;76;21115;-73
2022/08/22 01:52:38;;;;;;;13.18;6.72;;;27.20;99.90;;;;;;1861955;76;21124;-72
2022/08/22 01:55:11;;;;;;;12.20;6.90;;;27.30;99.90;;;;;;1872461;75;21061;-73
2022/08/22 01:57:44;;;;;;;13.65;7.05;;;27.30;99.90;;;;;;1850304;75;21101;-72
2022/08/22 02:00:18;;;;;;;9.70;6.67;;;27.40;99.90;;;;;;1849332;75;21229;-73
2022/08/22 02:02:53;;;;;;;10.28;6.95;;;27.40;99.90;;;;;;1865363;75;21171;-73
2022/08/22 02:05:26;;;;;;;12.58;6.67;;;27.40;99.90;;;;;;1834116;77;21104;-73
2022/08/22 02:07:59;;;;;;;10.53;6.75;;;27.50;99.90;;;;;;1859407;75;21048;-72
2022/08/22 02:10:32;;;;;;;11.05;6.37;;;27.60;99.90;;;;;;1877217;74;21551;-72
2022/08/22 02:13:06;;;;;;;10.50;7.03;;;27.60;99.90;;;;;;1874207;75;21097;-71
2022/08/22 02:15:38;;;;;;;14.95;6.97;;;27.70;99.90;;;;;;1905200;74;21197;-72
2022/08/22 02:18:13;;;;;;;11.12;6.53;;;27.70;99.90;;;;;;1856814;76;21119;-71
2022/08/22 02:20:46;;;;;;;9.03;6.65;;;27.80;99.90;;;;;;1856420;76;21079;-72
2022/08/22 02:23:18;;;;;;;11.65;6.37;;;27.80;99.90;;;;;;1867703;76;21128;-72
2022/08/22 02:25:57;;;;;;;13.68;6.85;;;27.90;99.90;;;;;;1846864;77;21647;-72
2022/08/22 02:28:30;;;;;;;12.00;6.03;;;27.90;99.90;;;;;;1853880;76;21306;-73
2022/08/22 02:31:02;;;;;;;10.32;6.62;;;27.90;99.90;;;;;;1843706;77;21109;-71
2022/08/22 02:33:35;;;;;;;10.93;6.28;;;28.00;99.90;;;;;;1859867;75;21107;-73
2022/08/22 02:36:08;;;;;;;8.33;6.12;;;28.00;99.90;;;;;;1864553;76;21118;-72
2022/08/22 02:38:42;;;;;;;13.85;6.58;;;28.00;99.90;;;;;;1890962;75;21104;-73
2022/08/22 02:41:15;;;;;;;10.65;6.45;;;28.10;99.90;;;;;;1856422;75;21236;-72
2022/08/22 02:43:48;;;;;;;9.93;6.37;;;28.10;99.90;;;;;;1846380;76;21971;-73
2022/08/22 02:46:22;;;;;;;11.53;7.03;;;28.20;99.90;;;;;;1860215;77;21131;-73
2022/08/22 02:48:56;;;;;;;12.53;7.22;;;28.20;99.90;;;;;;1841208;77;21112;-72
2022/08/22 02:51:29;;;;;;;11.57;7.60;;;28.30;99.90;;;;;;1859251;76;21231;-72
2022/08/22 02:54:02;;;;;;;13.15;8.33;;;28.40;99.90;;;;;;1883586;74;21191;-72
2022/08/22 02:56:36;;;;;;;11.53;7.78;;;28.50;99.90;;;;;;1897601;74;21124;-71
2022/08/22 02:59:12;;;;;;;12.10;8.08;;;28.70;99.90;;;;;;1896769;74;21179;-73
2022/08/22 03:01:45;;;;;;;12.93;8.45;;;28.80;99.90;;;;;;1891212;75;21147;-72
2022/08/22 03:04:18;;;;;;;11.75;8.28;;;29.00;99.90;;;;;;1864279;77;21206;-72
2022/08/22 03:06:51;;;;;;;16.07;9.28;;;29.20;99.90;;;;;;1845424;77;21245;-73
2022/08/22 03:09:25;;;;;;;12.55;9.10;;;29.30;99.90;;;;;;1894349;74;21198;-71
2022/08/22 03:11:58;;;;;;;11.60;9.43;;;29.40;99.90;;;;;;1910627;73;21195;-70
2022/08/22 03:14:30;;;;;;;11.33;8.23;;;29.60;99.90;;;;;;1842455;76;21537;-72
2022/08/22 03:17:02;;;;;;;15.38;9.65;;;29.70;99.90;;;;;;1870099;75;21159;-72
2022/08/22 03:19:35;;;;;;;13.32;8.40;;;29.80;99.90;;;;;;1901143;75;21101;-72
2022/08/22 03:22:09;;;;;;;12.95;8.33;;;29.90;99.90;;;;;;1886050;75;21142;-72
2022/08/22 03:24:42;;;;;;;11.78;8.45;;;29.90;99.90;;;;;;1897420;75;21151;-72
2022/08/22 03:27:16;;;;;;;13.98;8.98;;;29.90;99.90;;;;;;1899662;75;21076;-72
2022/08/22 03:29:50;;;;;;;12.58;9.00;;;29.90;99.90;;;;;;1851491;76;21120;-72
2022/08/22 03:32:24;;;;;;;11.12;8.43;;;30.00;99.90;;;;;;1897012;75;21083;-72
2022/08/22 03:34:57;;;;;;;12.63;8.38;;;30.00;99.90;;;;;;1901314;75;21151;-73
2022/08/22 03:37:29;;;;;;;15.08;8.68;;;30.00;99.90;;;;;;1860702;76;21709;-72
2022/08/22 03:40:02;;;;;;;15.03;8.05;;;29.90;99.90;;;;;;1900279;75;21120;-72
2022/08/22 03:42:36;;;;;;;13.32;8.43;;;29.90;99.90;;;;;;1859753;76;21122;-72
2022/08/22 03:45:09;;;;;;;11.22;7.20;;;29.90;99.90;;;;;;1903111;75;21193;-73
2022/08/22 03:47:43;;;;;;;11.65;7.03;;;29.90;99.90;;;;;;1871451;75;21257;-73
2022/08/22 03:50:16;;;;;;;10.15;7.70;;;30.00;99.90;;;;;;1897613;74;21069;-73
2022/08/22 03:55:23;;;;;;;11.73;7.12;;;30.10;99.90;;;;;;1902494;75;21115;-72
2022/08/22 03:57:55;;;;;;;9.70;7.33;;;30.10;99.90;;;;;;1863682;76;21190;-73
2022/08/22 04:00:32;;;;;;;11.25;7.45;;;30.10;99.90;;;;;;1900680;75;21745;-71
2022/08/22 04:03:08;;;;;;;13.03;8.10;;;30.00;99.70;;;;;;1862950;76;21650;-73
2022/08/22 04:05:43;;;;;;;9.00;6.53;;;30.00;99.90;;;;;;1903441;75;21242;-75
2022/08/22 04:08:15;;;;;;;10.43;6.80;;;30.00;99.90;;;;;;1900395;74;21158;-73
2022/08/22 04:10:50;;;;;;;13.20;7.87;;;30.00;99.90;;;;;;1898773;75;21060;-74
2022/08/22 04:13:23;;;;;;;11.33;7.65;;;30.00;99.90;;;;;;1909088;75;21473;-73
2022/08/22 04:15:57;;;;;;;11.12;7.80;;;30.10;99.90;;;;;;1904374;74;21512;-73
2022/08/22 04:18:29;;;;;;;14.95;7.45;;;30.10;99.90;;;;;;1875613;75;21080;-72
2022/08/22 04:21:02;;;;;;;12.10;7.62;;;30.20;99.90;;;;;;1866115;76;21104;-72
2022/08/22 04:23:35;;;;;;;14.00;7.20;;;30.40;99.90;;;;;;1899919;75;21155;-72
2022/08/22 04:26:10;;;;;;;11.33;6.58;;;30.40;99.20;;;;;;1842982;77;21780;-72
2022/08/22 04:28:44;;;;;;;12.53;7.65;;;30.50;98.60;;;;;;1902753;74;21147;-72
2022/08/22 04:31:17;;;;;;;13.08;8.03;;;30.50;99.00;;;;;;1912257;74;21610;-72
2022/08/22 04:33:49;;;;;;;9.85;7.58;;;30.50;99.50;;;;;;1855403;76;21093;-73
2022/08/22 04:36:23;;;;;;;11.70;6.75;;;30.60;99.70;;;;;;1872278;76;21128;-73
2022/08/22 04:38:56;;;;;;;10.80;7.35;;;30.60;98.90;;;;;;1834299;78;21129;-73
2022/08/22 04:41:29;;;;;;;11.43;6.90;;;30.70;98.60;;;;;;1882026;76;21132;-72
2022/08/22 04:44:02;;;;;;;10.98;6.40;;;30.70;98.30;;;;;;1897315;75;21085;-72
2022/08/22 04:46:37;;;;;;;12.58;7.80;;;30.60;98.70;;;;;;1869671;75;21093;-72
2022/08/22 04:49:10;;;;;;;12.70;6.92;;;30.60;98.30;;;;;;1919842;74;21564;-72
2022/08/22 04:51:44;;;;;;;11.93;6.45;;;30.50;98.90;;;;;;1935063;74;21132;-73
2022/08/22 04:54:17;;;;;;;11.15;5.78;;;30.40;98.50;;;;;;1921773;74;21218;-73
2022/08/22 04:56:50;;;;;;;10.60;6.85;;;30.40;98.50;;;;;;1887609;75;21536;-72
2022/08/22 04:59:23;;;;;;;8.88;6.10;;;30.40;98.30;;;;;;1892954;75;21088;-72
2022/08/22 05:01:57;;;;;;;9.55;6.65;;;30.40;98.50;;;;;;1858043;76;21264;-72
2022/08/22 05:04:31;;;;;;;10.00;6.37;;;30.40;98.80;;;;;;1896429;75;21163;-73
2022/08/22 05:07:04;;;;;;;7.75;5.15;;;30.60;99.00;;;;;;1899262;75;21059;-72
2022/08/22 05:09:38;;;;;;;8.95;5.50;;;30.80;98.80;;;;;;1889606;75;21104;-72
2022/08/22 05:12:13;;;;;;;9.63;5.47;;;30.90;98.10;;;;;;1901941;74;21127;-72
2022/08/22 05:14:46;;;;;;;9.55;5.65;;;31.00;97.50;;;;;;1905684;75;21115;-72
2022/08/22 05:17:20;;;;;;;9.08;5.92;;;31.10;96.70;;;;;;1906373;75;21120;-72
2022/08/22 05:19:53;;;;;;;9.98;5.90;;;31.00;97.80;;;;;;1868305;76;21171;-73
2022/08/22 05:22:26;;;;;;;7.90;6.12;;;31.00;97.40;;;;;;1906911;75;21135;-71
2022/08/22 05:24:59;;;;;;;8.78;5.33;;;31.00;97.30;;;;;;1879823;75;21123;-74
2022/08/22 05:27:33;;;;;;;9.78;5.40;;;31.00;96.30;;;;;;1849794;76;21214;-73
2022/08/22 05:30:08;;;;;;;9.50;5.83;;;31.00;97.70;;;;;;1903839;75;21691;-71
2022/08/22 05:32:41;;;;;;;10.38;5.97;;;31.00;97.20;;;;;;1854925;76;21646;-72
2022/08/22 05:35:14;;;;;;;8.40;5.92;;;31.00;97.90;;;;;;1904051;75;21084;-72
2022/08/22 05:37:48;;;;;;;7.28;4.97;;;31.00;97.20;;;;;;1904192;75;21064;-71
2022/08/22 05:40:23;;;;;;;11.70;6.08;;;31.00;96.80;;;;;;1899041;75;21073;-72
2022/08/22 05:42:56;;;;;;;12.68;7.20;;;30.90;96.70;;;;;;1852491;76;21690;-72
2022/08/22 05:45:28;;;;;;;10.93;5.72;;;30.80;97.80;;;;;;1894425;75;21107;-71
2022/08/22 05:48:03;;;;;;;8.80;5.40;;;30.80;97.50;;;;;;1901877;75;21094;-73
2022/08/22 05:50:34;;;;;;;14.80;6.60;;;30.70;97.30;;;;;;1856981;76;21101;-72
2022/08/22 05:53:08;;;;;;;9.80;6.78;;;30.70;97.70;;;;;;1831112;77;21113;-72
2022/08/22 05:55:41;;;;;;;12.23;7.72;;;30.60;98.40;;;;;;1834224;77;21140;-72
2022/08/22 05:58:17;;;;;;;9.03;6.83;;;30.60;99.10;;;;;;1816543;77;21140;-73
2022/08/22 06:00:50;;;;;;;13.40;7.10;;;30.50;99.20;;;;;;1898370;75;21100;-72
2022/08/22 06:03:22;;;;;;;15.95;7.37;;;30.40;99.00;;;;;;1897719;75;21508;-73
2022/08/22 06:05:55;;;;;;;12.58;7.42;;;30.40;99.70;;;;;;1857656;76;21467;-72
2022/08/22 06:08:29;;;;;;;10.95;7.25;;;30.40;99.50;;;;;;1901638;74;21159;-73
2022/08/22 06:11:02;;;;;;;11.25;6.97;;;30.30;99.40;;;;;;1855189;75;21641;-71
2022/08/22 06:13:34;;;;;;;12.20;7.85;;;30.30;99.50;;;;;;1894916;74;21945;-73
2022/08/22 06:16:08;;;;;;;11.78;7.05;;;30.30;99.90;;;;;;1853614;76;21116;-72
2022/08/22 06:18:43;;;;;;;9.58;7.25;;;30.20;99.80;;;;;;1885791;74;21621;-73
2022/08/22 06:21:16;;;;;;;11.95;6.95;;;30.20;99.80;;;;;;1881004;74;21163;-73
2022/08/22 06:23:49;;;;;;;10.78;7.30;;;30.30;99.80;;;;;;1857196;76;21233;-72
2022/08/22 06:26:21;;;;;;;11.78;6.50;;;30.30;99.90;;;;;;1888042;74;21115;-71
2022/08/22 06:28:54;;;;;;;12.20;8.00;;;30.40;99.90;;;;;;1851014;77;21175;-72
2022/08/22 06:31:27;;;;;;;9.23;6.58;;;30.40;99.80;;;;;;1879824;74;21073;-72
2022/08/22 06:34:01;;;;;;;9.80;6.42;;;30.50;99.70;;;;;;1889762;74;21129;-72
2022/08/22 06:36:34;;;;;;;10.50;6.65;;;30.50;99.60;;;;;;1883189;74;21249;-72
2022/08/22 06:39:07;;;;;;;11.83;6.37;;;30.60;99.90;;;;;;1853397;77;21072;-72
2022/08/22 06:41:41;;;;;;;10.45;6.22;;;30.60;99.00;;;;;;1890273;74;21192;-72
2022/08/22 06:44:15;;;;;;;13.28;6.78;;;30.70;98.70;;;;;;1888289;74;21889;-72
2022/08/22 06:46:48;;;;;;;10.15;6.85;;;30.60;98.70;;;;;;1850016;76;21076;-72
2022/08/22 06:49:21;;;;;;;8.88;5.50;;;30.60;98.60;;;;;;1890680;74;21172;-73
2022/08/22 06:51:54;;;;;;;9.25;5.80;;;30.60;98.60;;;;;;1851858;76;21579;-70
2022/08/22 06:54:27;;;;;;;12.20;6.90;;;30.60;98.60;;;;;;1852843;76;21088;-72
2022/08/22 06:57:00;;;;;;;10.85;6.58;;;30.50;99.00;;;;;;1846931;76;21173;-70
2022/08/22 06:59:34;;;;;;;7.05;5.67;;;30.50;99.60;;;;;;1892102;74;21119;-72
2022/08/22 07:02:07;;;;;;;11.45;5.92;;;30.40;99.20;;;;;;1834999;76;21061;-72
2022/08/22 07:04:39;;;;;;;9.00;6.12;;;30.40;99.30;;;;;;1855771;76;21120;-72
2022/08/22 07:07:10;;;;;;;11.48;6.00;;;30.50;99.40;;;;;;1872110;74;21153;-72
2022/08/22 07:09:41;;;;;;;8.78;5.80;;;30.50;99.40;;;;;;1889640;74;21153;-73
2022/08/22 07:12:15;;;;;;;7.30;5.30;;;30.50;99.10;;;;;;1888828;74;21163;-72
2022/08/22 07:14:48;;;;;;;12.05;6.00;;;30.50;99.30;;;;;;1888848;75;21113;-72
2022/08/22 07:17:22;;;;;;;11.55;6.05;;;30.50;99.40;;;;;;1900806;75;21083;-72
2022/08/22 07:19:55;;;;;;;12.60;6.92;;;30.50;99.30;;;;;;1857721;76;21076;-72
2022/08/22 07:22:29;;;;;;;9.80;5.85;;;30.60;99.20;;;;;;1871664;75;21136;-72
2022/08/22 07:25:02;;;;;;;11.05;6.33;;;30.60;99.30;;;;;;1817730;78;21139;-72
2022/08/22 07:27:36;;;;;;;9.08;5.50;;;30.60;98.90;;;;;;1879462;75;21123;-71
2022/08/22 07:30:10;;;;;;;14.20;5.92;;;30.60;98.90;;;;;;1893241;75;21552;-72
2022/08/22 07:32:44;;;;;;;11.35;6.40;;;30.50;98.70;;;;;;1865773;75;21104;-72
2022/08/22 07:35:17;;;;;;;14.80;9.08;;;30.50;99.00;;;;;;1833485;78;21129;-72
2022/08/22 07:37:50;;;;;;;14.87;6.90;;;30.50;99.00;;;;;;1902597;74;21108;-73
2022/08/22 07:40:24;;;;;;;11.40;9.00;;;30.40;98.90;;;;;;1907795;75;21571;-73
2022/08/22 07:42:57;;;;;;;11.35;7.85;;;30.50;98.80;;;;;;1893912;75;21563;-71
2022/08/22 07:45:30;;;;;;;12.58;7.65;;;30.50;99.00;;;;;;1867555;75;21080;-72
2022/08/22 07:48:04;;;;;;;10.40;7.40;;;30.50;99.00;;;;;;1893128;75;21241;-72
2022/08/22 07:50:38;;;;;;;12.18;7.50;;;30.50;99.20;;;;;;1872131;75;21521;-72
2022/08/22 07:53:12;;;;;;;10.95;6.72;;;30.60;99.20;;;;;;1889616;75;21138;-72
2022/08/22 07:55:45;;;;;;;11.97;5.92;;;30.50;99.00;;;;;;1864675;75;21147;-71
2022/08/22 07:58:19;;;;;;;12.95;7.15;;;30.60;99.10;;;;;;1894242;75;21149;-72
2022/08/22 08:00:51;;;;;;;12.43;7.50;;;30.60;98.70;;;;;;1894220;75;21587;-72
2022/08/22 08:03:24;;;;;;;14.35;5.85;;;30.60;98.10;;;;;;1896241;75;21111;-72
2022/08/22 08:05:56;;;;;;;7.65;5.65;;;30.50;97.10;;;;;;1859594;75;21079;-72
2022/08/22 08:08:29;;;;;;;11.08;6.20;;;30.60;97.90;;;;;;1901975;75;21544;-72
2022/08/22 08:11:02;;;;;;;9.65;6.25;;;30.60;98.10;;;;;;1901783;75;21232;-72
2022/08/22 08:13:36;;;;;;;7.75;5.83;;;30.60;98.20;;;;;;1854499;75;21549;-71
2022/08/22 08:16:09;;;;;;;10.08;6.00;;;30.70;98.10;;;;;;1796514;78;21202;-72
2022/08/22 08:18:40;;;;;;;7.70;5.47;;;30.80;97.50;;;;;;1852886;76;21615;-73
2022/08/22 08:21:15;;;;;;;11.97;5.55;;;30.80;96.90;;;;;;1818272;77;21585;-71
2022/08/22 08:23:48;;;;;;;;;;;30.80;96.70;;;;;;1849853;75;21134;-72
2022/08/22 08:26:21;;;;;;;7.58;5.17;;;30.70;97.00;;;;;;1844118;76;20193;-72
2022/08/22 08:28:55;;;;;;;8.15;5.50;;;30.70;96.60;;;;;;1848171;75;21143;-71
2022/08/22 08:31:27;;;;;;;8.50;5.00;;;30.70;96.70;;;;;;1849855;76;21127;-71
2022/08/22 08:34:00;;;;;;;7.17;5.35;;;30.70;96.60;;;;;;1846383;75;21171;-72
2022/08/22 08:36:32;;;;;;;7.33;5.05;;;30.70;96.60;;;;;;1847496;76;21158;-73
2022/08/22 08:39:11;;;;;;;9.93;4.75;;;30.80;96.60;;;;;;1829710;77;21217;-72
2022/08/22 08:41:38;;;;;;;6.85;4.47;;;30.70;96.90;;;;;;1846433;76;21704;-72
2022/08/22 08:44:10;;;;;;;8.90;4.92;;;30.80;96.00;;;;;;1854412;75;21117;-71
2022/08/22 08:46:43;;;;;;;5.92;4.60;;;30.80;95.70;;;;;;1861635;75;21171;-71
2022/08/22 08:49:18;;;;;;;7.65;4.70;;;30.70;95.40;;;;;;1851169;76;21112;-72
2022/08/22 08:51:52;;;;;;;7.72;4.72;;;30.80;95.60;;;;;;1845706;75;21098;-73
2022/08/22 08:54:26;;;;;;;7.25;5.25;;;30.70;96.10;;;;;;1851628;76;21166;-71
2022/08/22 08:57:01;;;;;;;8.20;5.80;;;30.60;96.50;;;;;;1848550;76;21131;-72
2022/08/22 08:59:36;;;;;;;11.48;5.55;;;30.60;96.90;;;;;;1852379;75;21186;-72
2022/08/22 09:02:11;;;;;;;11.10;5.80;;;30.60;96.70;;;;;;1849325;75;21076;-72
2022/08/22 09:04:44;;;;;;;8.25;5.37;;;30.50;97.00;;;;;;1849134;75;21202;-72
2022/08/22 09:07:15;;;;;;;10.28;5.90;;;30.50;97.70;;;;;;1839221;75;21190;-70
2022/08/22 09:09:47;;;;;;;8.10;5.97;;;30.50;98.50;;;;;;1845939;75;21199;-73
2022/08/22 09:12:22;;;;;;;8.13;5.72;;;30.40;98.90;;;;;;1832703;75;21107;-72
2022/08/22 09:14:55;;;;;;;9.88;5.80;;;30.40;99.30;;;;;;1853271;76;21089;-80
2022/08/22 09:17:29;;;;;;;8.33;5.85;;;30.40;99.40;;;;;;1894711;74;21076;-84
2022/08/22 09:20:09;;;;;;;8.38;6.00;;;30.30;99.50;;;;;;1896609;74;21155;-82
2022/08/22 09:22:42;;;;;;;11.40;6.25;;;30.30;99.60;;;;;;1886348;74;21591;-82
2022/08/22 09:25:17;;;;;;;11.33;7.05;;;30.30;99.80;;;;;;1883433;74;21512;-82
2022/08/22 09:27:52;;;;;;;12.82;6.58;;;30.20;99.90;;;;;;1886650;74;21048;-85
2022/08/22 09:30:26;;;;;;;10.13;6.15;;;30.20;99.90;;;;;;1899524;74;21077;-83
2022/08/22 09:33:01;;;;;;;11.57;6.42;;;30.20;99.90;;;;;;1901948;74;21143;-82
2022/08/22 09:35:34;;;;;;;8.95;5.95;;;30.10;99.90;;;;;;1861920;76;21098;-82
2022/08/22 09:38:11;;;;;;;10.72;7.45;;;30.10;99.90;;;;;;1889817;74;21222;-83
2022/08/22 09:40:52;;;;;;;10.43;6.47;;;30.10;99.90;;;;;;1898156;74;21161;-83
2022/08/22 09:43:28;;;;;;;11.53;6.08;;;30.10;99.90;;;;;;1866149;75;21616;-84
2022/08/22 09:46:07;;;;;;;11.48;6.45;;;30.10;99.90;;;;;;1885989;74;21167;-84
2022/08/22 09:48:39;;;;;;;9.73;6.72;;;30.00;99.90;;;;;;1863797;75;21260;-83
2022/08/22 09:51:13;;;;;;;11.78;6.97;;;30.00;99.90;;;;;;1856595;76;21067;-85
2022/08/22 09:53:48;;;;;;;9.33;6.42;;;29.90;99.90;;;;;;1850591;76;21153;-84
2022/08/22 09:56:25;;;;;;;11.45;7.00;;;29.90;99.90;;;;;;1887491;75;21076;-84
2022/08/22 09:58:58;;;;;;;12.82;6.78;;;29.90;99.90;;;;;;1862244;76;21084;-82
2022/08/22 10:01:31;;;;;;;12.58;7.10;;;29.90;99.90;;;;;;1855884;76;21513;-83
2022/08/22 10:04:04;;;;;;;9.75;6.30;;;29.90;99.90;;;;;;1848975;77;21137;-82
2022/08/22 10:06:47;;;;;;;;;;;29.90;99.90;;;;;;1838501;76;21084;-84
2022/08/22 10:09:20;;;;;;;12.55;6.92;;;29.90;99.90;;;;;;1899066;74;20146;-84
2022/08/22 10:12:00;;;;;;;11.53;6.37;;;29.80;99.90;;;;;;1863239;75;21132;-85
2022/08/22 10:14:29;;;;;;;10.80;6.70;;;29.80;99.90;;;;;;1863536;75;21057;-84
2022/08/22 10:17:01;;;;;;;12.73;6.85;;;29.80;99.90;;;;;;1861385;76;21092;-83
2022/08/22 10:19:38;;;;;;;10.58;6.10;;;29.70;99.90;;;;;;1897302;75;21141;-83
2022/08/22 10:24:48;;;;;;;10.75;7.03;;;29.70;99.90;;;;;;1826880;77;21524;-84
2022/08/22 10:27:22;;;;;;;8.68;5.97;;;29.70;99.90;;;;;;1826061;77;21142;-85
2022/08/22 10:29:56;;;;;;;8.53;5.83;;;29.70;99.90;;;;;;1803610;78;21093;-83
2022/08/22 10:32:29;;;;;;;10.28;5.83;;;29.70;99.90;;;;;;1817732;78;21111;-83
2022/08/22 10:35:03;;;;;;;6.62;5.42;;;29.70;99.90;;;;;;1814075;77;21102;-83
2022/08/22 10:37:46;;;;;;;8.65;5.78;;;29.60;99.90;;;;;;1828038;77;21747;-83
2022/08/22 10:40:22;;;;;;;9.95;5.92;;;29.60;99.90;;;;;;1831961;77;21114;-83
2022/08/22 10:42:56;;;;;;;7.95;5.28;;;29.60;99.90;;;;;;1831598;77;21186;-84
2022/08/22 10:45:30;;;;;;;10.28;5.58;;;29.60;99.90;;;;;;1785509;79;21265;-82
2022/08/22 10:48:05;;;;;;;9.60;5.83;;;29.50;99.90;;;;;;1828258;77;21179;-83
2022/08/22 10:50:40;;;;;;;8.35;5.20;;;29.50;99.90;;;;;;1826609;77;21541;-83
2022/08/22 10:55:46;;;;;;;6.35;4.40;;;29.40;99.90;;;;;;1831374;77;21147;-83
2022/08/22 10:58:20;;;;;;;7.72;4.00;;;29.40;99.90;;;;;;1824179;77;21088;-82
2022/08/22 11:00:53;;;;;;;6.37;3.90;;;29.40;99.90;;;;;;1821721;77;21144;-82
2022/08/22 11:03:27;;;;;;;;;;;29.30;99.90;;;;;;1827270;77;21112;-84
2022/08/22 11:06:01;;;;;;;7.83;3.87;;;29.30;99.90;;;;;;1813792;78;20144;-83
2022/08/22 11:08:39;;;;;;;7.35;5.03;;;29.30;99.90;;;;;;1785159;79;21090;-82
2022/08/22 11:11:14;;;;;;;8.63;4.62;;;29.20;99.90;;;;;;1821777;77;21138;-83
2022/08/22 11:13:47;;;;;;;6.60;4.67;;;29.20;99.90;;;;;;1816416;77;21191;-82
2022/08/22 11:16:19;;;;;;;8.28;4.33;;;29.20;99.90;;;;;;1789632;79;21208;-81
2022/08/22 11:18:52;;;;;;;8.13;4.83;;;29.10;99.90;;;;;;1821388;77;21186;-81
2022/08/22 11:21:27;;;;;;;5.90;4.75;;;29.10;99.90;;;;;;1824939;77;21115;-81
2022/08/22 11:24:01;;;;;;;7.72;5.20;;;29.00;99.90;;;;;;1820739;77;21129;-82
2022/08/22 11:26:34;;;;;;;10.08;4.95;;;29.00;99.90;;;;;;1805056;79;21645;-81
2022/08/22 11:29:09;;;;;;;8.20;5.58;;;29.00;99.90;;;;;;1803205;78;21147;-81
2022/08/22 11:31:43;;;;;;;8.40;5.12;;;29.00;99.90;;;;;;1813019;78;21057;-82
2022/08/22 11:34:18;;;;;;;9.50;5.20;;;28.90;99.90;;;;;;1796969;77;21127;-82
2022/08/22 11:36:51;;;;;;;11.90;6.40;;;28.90;99.90;;;;;;1799694;78;21088;-81
2022/08/22 11:39:23;;;;;;;10.88;5.62;;;28.90;99.90;;;;;;1807900;77;21100;-83
2022/08/22 11:41:57;;;;;;;7.00;5.92;;;28.90;99.90;;;;;;1819898;78;21126;-83
2022/08/22 11:44:36;;;;;;;11.50;6.80;;;28.80;99.90;;;;;;1814331;79;21288;-80
2022/08/22 11:47:12;;;;;;;9.03;6.70;;;28.80;99.90;;;;;;1810559;77;21150;-83
2022/08/22 11:49:45;;;;;;;8.68;5.50;;;28.80;99.90;;;;;;1811868;78;21688;-82
2022/08/22 11:52:18;;;;;;;11.10;6.67;;;28.80;99.90;;;;;;1812549;78;21228;-82
2022/08/22 11:54:51;;;;;;;10.48;6.40;;;28.80;99.90;;;;;;1815748;78;21183;-81
2022/08/22 11:57:25;;;;;;;8.05;6.37;;;28.80;99.90;;;;;;1810817;78;21112;-82
2022/08/22 11:59:57;;;;;;;9.30;6.15;;;28.80;99.90;;;;;;1812143;78;21112;-81
2022/08/22 12:02:31;;;;;;;11.08;6.15;;;28.70;99.90;;;;;;1813680;78;21106;-84
2022/08/22 12:05:05;;;;;;;11.33;6.80;;;28.70;99.90;;;;;;1812775;78;21191;-81
2022/08/22 12:07:38;;;;;;;10.68;5.92;;;28.70;99.90;;;;;;1811944;78;21073;-82
2022/08/22 12:10:12;;;;;;;13.00;6.22;;;28.70;99.90;;;;;;1805382;78;21096;-83
2022/08/22 12:12:44;;;;;;;13.70;6.35;;;28.70;99.90;;;;;;1812901;78;21147;-79
2022/08/22 12:15:17;;;;;;;9.68;5.70;;;28.60;99.90;;;;;;1821628;78;22019;-83
2022/08/22 12:17:52;;;;;;;7.72;5.70;;;28.60;99.90;;;;;;1819634;78;21177;-83
2022/08/22 12:20:31;;;;;;;11.08;5.67;;;28.50;99.90;;;;;;1801516;78;21119;-80
2022/08/22 12:23:00;;;;;;;9.85;5.33;;;28.50;99.90;;;;;;1739801;81;21621;-81
2022/08/22 12:25:51;;;;;;;10.82;5.42;;;28.50;99.90;;;;;;1832598;77;21221;-82
2022/08/22 12:28:24;;;;;;;11.03;5.95;;;28.50;99.90;;;;;;1830765;77;21157;-80
2022/08/22 12:30:58;;;;;;;10.58;5.87;;;28.50;99.90;;;;;;1848768;77;21147;-81
2022/08/22 12:35:33;;;;;;;10.35;5.60;;;28.50;99.90;;;;;;1761277;79;21091;-83
2022/08/22 12:36:56;;;;;;;;;;;;;;;;;;;;;
2022/08/22 12:39:40;;;;;;;11.35;5.78;;;28.40;99.90;;;;;;1641225;84;21663;-82
2022/08/22 12:42:13;;;;;;;7.30;5.33;;;28.40;99.90;;;;;;1665493;86;21151;-82
2022/08/22 12:44:50;;;;;;;9.55;5.42;;;28.40;99.90;;;;;;1679472;84;21219;-82
2022/08/22 12:47:25;;;;;;;9.53;5.87;;;28.30;99.90;;;;;;1666129;85;21200;-83
2022/08/22 12:50:00;;;;;;;10.30;5.87;;;28.30;99.90;;;;;;1673391;84;21258;-83
2022/08/22 12:55:21;;;;;;;9.08;6.17;;;28.30;99.90;;;;;;1924745;73;28139;-82
2022/08/22 12:57:58;;;;;;;9.20;5.85;;;28.30;99.90;;;;;;1901917;75;21142;-82
2022/08/22 13:00:33;;;;;;;10.18;5.55;;;28.30;99.90;;;;;;1909152;75;21136;-83
2022/08/22 13:03:08;;;;;;;10.18;5.80;;;28.30;99.90;;;;;;1901227;75;21155;-81
2022/08/22 13:05:41;;;;;;;9.50;5.80;;;28.30;99.90;;;;;;1907203;75;21140;-82
2022/08/22 13:08:15;;;;;;;9.53;5.37;;;28.30;99.90;;;;;;1903207;75;21478;-81
2022/08/22 13:10:49;;;;;;;7.45;5.47;;;28.30;99.90;;;;;;1901920;74;21719;-82
2022/08/22 13:13:23;;;;;;;12.95;5.62;;;28.30;99.90;;;;;;1897797;74;21101;-81
2022/08/22 13:15:58;;;;;;;10.72;6.08;;;28.30;99.90;;;;;;1893480;75;21077;-82
2022/08/22 13:18:31;;;;;;;11.00;5.92;;;28.30;99.90;;;;;;1906295;75;21145;-82
2022/08/22 13:21:07;;;;;;;7.30;5.75;;;28.20;99.90;;;;;;1902498;75;21108;-81
2022/08/22 13:23:54;;;;;;;10.65;7.62;;;28.20;99.90;;;;;;1893813;75;21139;-80